createdAt,value
2022-11-23T00:02:26.475Z,2.50
2022-11-23T00:05:29.377Z,3.12
2022-11-23T00:08:31.538Z,4.70
2022-11-23T00:11:35.317Z,2.60
2022-11-23T00:14:37.623Z,3.92
2022-11-23T00:17:40.190Z,5.03
2022-11-23T00:20:42.346Z,3.60
2022-11-23T00:23:45.328Z,4.70
2022-11-23T00:26:47.508Z,6.65
2022-11-23T00:29:49.715Z,3.12
2022-11-23T00:32:51.908Z,4.87
2022-11-23T00:36:04.790Z,2.05
2022-11-23T00:39:06.996Z,3.20
2022-11-23T00:42:09.204Z,5.35
2022-11-23T00:45:11.376Z,4.95
2022-11-23T00:48:13.558Z,3.83
2022-11-23T00:51:18.632Z,2.80
2022-11-23T00:54:20.801Z,3.08
2022-11-23T00:57:22.958Z,2.92
2022-11-23T01:00:25.128Z,1.37
2022-11-23T01:03:28.654Z,3.85
2022-11-23T01:06:39.272Z,2.78
2022-11-23T01:09:41.461Z,3.80
2022-11-23T01:12:43.591Z,1.62
2022-11-23T01:15:50.109Z,5.93
2022-11-23T01:18:53.789Z,4.05
2022-11-23T01:21:56.087Z,3.67
2022-11-23T01:24:58.273Z,1.92
2022-11-23T01:28:00.494Z,3.53
2022-11-23T01:31:06.098Z,1.40
2022-11-23T01:34:08.315Z,3.20
2022-11-23T01:37:10.742Z,2.92
2022-11-23T01:40:13.048Z,1.52
2022-11-23T01:43:16.984Z,2.20
2022-11-23T01:46:19.735Z,4.93
2022-11-23T01:49:23.183Z,3.08
2022-11-23T01:52:26.678Z,2.42
2022-11-23T01:55:29.027Z,1.77
2022-11-23T01:58:33.793Z,2.95
2022-11-23T02:01:36.027Z,3.78
2022-11-23T02:04:41.172Z,2.12
2022-11-23T02:07:43.358Z,2.58
2022-11-23T02:10:46.103Z,4.37
2022-11-23T02:13:49.795Z,1.98
2022-11-23T02:16:52.075Z,5.68
2022-11-23T02:20:06.741Z,1.83
2022-11-23T02:23:44.316Z,2.97
2022-11-23T02:26:46.677Z,2.95
2022-11-23T02:29:49.539Z,3.85
2022-11-23T02:32:51.743Z,2.05
2022-11-23T02:35:57.496Z,1.80
2022-11-23T02:39:02.973Z,2.60
2022-11-23T02:42:05.648Z,2.45
2022-11-23T02:45:26.310Z,3.85
2022-11-23T02:48:28.576Z,5.65
2022-11-23T02:51:30.931Z,4.93
2022-11-23T02:54:33.264Z,3.67
2022-11-23T02:57:35.616Z,3.20
2022-11-23T03:00:38.106Z,3.20
2022-11-23T03:03:40.325Z,6.28
2022-11-23T03:06:42.682Z,2.30
2022-11-23T03:09:44.850Z,4.55
2022-11-23T03:12:47.051Z,5.85
2022-11-23T03:15:49.263Z,3.12
2022-11-23T03:18:51.708Z,3.05
2022-11-23T03:21:54.009Z,5.60
2022-11-23T03:24:57.498Z,3.30
2022-11-23T03:27:59.712Z,2.30
2022-11-23T03:31:01.936Z,3.40
2022-11-23T03:34:04.201Z,2.95
2022-11-23T03:37:06.455Z,2.55
2022-11-23T03:40:09.523Z,1.70
2022-11-23T03:43:12.825Z,1.52
2022-11-23T03:46:15.060Z,4.78
2022-11-23T03:49:17.419Z,2.10
2022-11-23T03:52:19.603Z,2.22
2022-11-23T03:55:21.799Z,1.92
2022-11-23T03:58:24.287Z,2.00
2022-11-23T04:01:26.649Z,1.55
2022-11-23T04:04:28.851Z,3.20
2022-11-23T04:07:31.061Z,1.10
2022-11-23T04:10:33.248Z,1.65
2022-11-23T04:13:35.456Z,3.37
2022-11-23T04:16:37.660Z,1.60
2022-11-23T04:19:39.826Z,6.85
2022-11-23T04:22:42.035Z,2.47
2022-11-23T04:25:45.609Z,7.05
2022-11-23T04:28:47.787Z,2.72
2022-11-23T04:31:49.918Z,6.22
2022-11-23T04:34:52.257Z,1.87
2022-11-23T04:37:54.423Z,2.55
2022-11-23T04:40:56.618Z,2.95
2022-11-23T04:43:58.760Z,7.18
2022-11-23T04:47:00.945Z,3.10
2022-11-23T04:50:03.418Z,1.90
2022-11-23T04:53:05.779Z,2.45
2022-11-23T04:56:09.856Z,1.65
2022-11-23T04:59:12.018Z,3.35
2022-11-23T05:02:14.356Z,3.70
2022-11-23T05:05:17.015Z,3.95
2022-11-23T05:08:19.450Z,3.58
2022-11-23T05:11:21.680Z,2.97
2022-11-23T05:14:23.829Z,4.00
2022-11-23T05:17:26.056Z,1.75
2022-11-23T05:20:28.278Z,6.45
2022-11-23T05:23:30.499Z,3.83
2022-11-23T05:26:32.674Z,2.55
2022-11-23T05:29:35.044Z,7.55
2022-11-23T05:32:37.273Z,3.80
2022-11-23T05:35:39.856Z,4.40
2022-11-23T05:38:42.449Z,1.67
2022-11-23T05:41:44.617Z,2.70
2022-11-23T05:44:46.726Z,2.65
2022-11-23T05:47:53.641Z,4.40
2022-11-23T05:50:58.595Z,2.08
2022-11-23T05:54:04.536Z,2.10
2022-11-23T05:57:06.856Z,3.87
2022-11-23T06:00:13.086Z,2.53
2022-11-23T06:03:15.268Z,1.37
2022-11-23T06:06:17.475Z,4.97
2022-11-23T06:09:19.670Z,7.07
2022-11-23T06:12:22.061Z,4.35
2022-11-23T06:15:24.229Z,2.58
2022-11-23T06:18:26.518Z,2.78
2022-11-23T06:21:28.693Z,1.75
2022-11-23T06:24:31.099Z,2.60
2022-11-23T06:27:33.295Z,2.95
2022-11-23T06:30:35.479Z,2.53
2022-11-23T06:33:38.576Z,4.72
2022-11-23T06:36:40.874Z,3.80
2022-11-23T06:39:43.007Z,2.62
2022-11-23T06:42:45.241Z,3.70
2022-11-23T06:45:47.363Z,3.75
2022-11-23T06:48:49.522Z,6.40
2022-11-23T06:51:51.700Z,3.28
2022-11-23T06:54:53.898Z,2.70
2022-11-23T06:57:57.782Z,7.43
2022-11-23T07:01:02.041Z,4.80
2022-11-23T07:04:04.421Z,8.75
2022-11-23T07:07:09.871Z,7.72
2022-11-23T07:10:12.356Z,2.67
2022-11-23T07:13:14.824Z,2.92
2022-11-23T07:16:17.093Z,3.55
2022-11-23T07:19:19.288Z,3.85
2022-11-23T07:22:21.461Z,4.12
2022-11-23T07:25:23.660Z,3.67
2022-11-23T07:28:25.874Z,3.37
2022-11-23T07:31:28.021Z,3.45
2022-11-23T07:34:30.198Z,2.97
2022-11-23T07:37:32.377Z,3.30
2022-11-23T07:40:37.185Z,3.53
2022-11-23T07:43:39.316Z,2.22
2022-11-23T07:46:41.507Z,5.10
2022-11-23T07:49:43.725Z,3.72
2022-11-23T07:52:45.887Z,4.40
2022-11-23T07:55:48.030Z,3.95
2022-11-23T07:58:50.555Z,2.85
2022-11-23T08:01:58.203Z,8.15
2022-11-23T08:05:00.554Z,11.18
2022-11-23T08:08:03.477Z,6.47
2022-11-23T08:11:06.832Z,4.30
2022-11-23T08:14:08.997Z,6.00
2022-11-23T08:17:11.129Z,3.78
2022-11-23T08:20:13.548Z,4.10
2022-11-23T08:23:15.727Z,6.70
2022-11-23T08:26:17.928Z,15.50
2022-11-23T08:29:20.641Z,4.00
2022-11-23T08:32:22.865Z,1.87
2022-11-23T08:35:25.120Z,3.30
2022-11-23T08:38:27.313Z,7.28
2022-11-23T08:41:29.441Z,8.32
2022-11-23T08:44:31.924Z,6.20
2022-11-23T08:47:34.688Z,25.92
2022-11-23T08:50:37.224Z,3.15
2022-11-23T08:53:39.424Z,4.95
2022-11-23T08:56:41.597Z,15.20
2022-11-23T08:59:43.770Z,12.32
2022-11-23T09:02:45.940Z,24.05
2022-11-23T09:05:48.150Z,5.40
2022-11-23T09:08:50.310Z,4.55
2022-11-23T09:11:54.012Z,7.32
2022-11-23T09:14:56.182Z,5.87
2022-11-23T09:17:58.428Z,6.03
2022-11-23T09:21:03.800Z,6.87
2022-11-23T09:24:06.355Z,6.07
2022-11-23T09:27:08.713Z,3.42
2022-11-23T09:30:11.674Z,2.20
2022-11-23T09:33:14.534Z,2.72
2022-11-23T09:36:16.737Z,2.12
2022-11-23T09:39:19.149Z,4.97
2022-11-23T09:42:50.720Z,5.07
2022-11-23T09:45:57.703Z,3.35
2022-11-23T09:49:13.065Z,3.92
2022-11-23T09:52:18.553Z,7.25
2022-11-23T09:55:33.319Z,5.50
2022-11-23T09:58:39.590Z,3.80
2022-11-23T10:01:41.822Z,4.62
2022-11-23T10:04:44.466Z,5.18
2022-11-23T10:08:23.772Z,4.32
2022-11-23T10:11:34.987Z,3.72
2022-11-23T10:14:49.093Z,2.22
2022-11-23T10:18:14.944Z,2.78
2022-11-23T10:21:38.867Z,4.40
2022-11-23T10:24:44.668Z,5.20
2022-11-23T10:27:49.437Z,4.15
2022-11-23T10:31:14.248Z,3.00
2022-11-23T10:34:21.728Z,3.22
2022-11-23T10:37:23.946Z,5.62
2022-11-23T10:40:28.175Z,5.20
2022-11-23T10:43:43.506Z,3.12
2022-11-23T10:46:45.714Z,3.53
2022-11-23T10:49:57.625Z,4.10
2022-11-23T10:53:02.173Z,7.45
2022-11-23T10:56:12.406Z,4.57
2022-11-23T10:59:36.633Z,2.70
2022-11-23T11:02:40.796Z,3.60
2022-11-23T11:09:20.728Z,4.15
2022-11-23T11:12:23.081Z,7.50
2022-11-23T11:15:25.443Z,3.72
2022-11-23T11:18:33.031Z,5.60
2022-11-23T11:21:36.222Z,6.45
2022-11-23T11:24:43.720Z,3.95
2022-11-23T11:27:51.839Z,3.90
2022-11-23T11:31:27.168Z,3.85
2022-11-23T11:34:32.192Z,10.15
2022-11-23T11:37:37.103Z,7.05
2022-11-23T11:40:47.976Z,4.22
2022-11-23T11:43:53.813Z,3.62
2022-11-23T11:47:04.749Z,2.55
2022-11-23T11:50:30.027Z,3.60
2022-11-23T11:53:38.073Z,3.05
2022-11-23T11:56:44.293Z,6.47
2022-11-23T11:59:50.021Z,4.68
2022-11-23T12:03:04.943Z,4.75
2022-11-23T12:06:16.221Z,3.37
2022-11-23T12:09:21.586Z,3.45
2022-11-23T12:12:29.485Z,6.53
2022-11-23T12:15:53.635Z,5.45
2022-11-23T12:19:10.835Z,6.65
2022-11-23T12:22:31.657Z,3.75
2022-11-23T12:25:37.315Z,8.20
2022-11-23T12:28:56.539Z,3.33
2022-11-23T12:32:26.686Z,3.12
2022-11-23T12:35:50.402Z,4.25
2022-11-23T12:39:01.611Z,2.97
2022-11-23T12:42:23.735Z,4.50
2022-11-23T12:45:50.627Z,3.67
2022-11-23T12:49:05.902Z,5.57
2022-11-23T12:52:17.316Z,5.30
2022-11-23T12:55:37.901Z,4.12
2022-11-23T12:58:40.738Z,6.10
2022-11-23T13:01:48.265Z,3.42
2022-11-23T13:05:05.632Z,4.00
2022-11-23T13:08:29.799Z,3.90
2022-11-23T13:12:02.121Z,7.93
2022-11-23T13:15:41.994Z,6.55
2022-11-23T13:19:07.048Z,4.32
2022-11-23T13:22:15.783Z,5.53
2022-11-23T13:25:24.853Z,10.02
2022-11-23T13:28:31.734Z,7.72
2022-11-23T13:31:36.047Z,11.40
2022-11-23T13:34:47.036Z,8.73
2022-11-23T13:37:58.034Z,13.75
2022-11-23T13:41:00.786Z,9.60
2022-11-23T13:44:22.692Z,9.77
2022-11-23T13:47:24.859Z,14.93
2022-11-23T13:50:27.061Z,10.23
2022-11-23T13:53:32.146Z,32.00
2022-11-23T13:56:39.599Z,45.15
2022-11-23T13:59:41.826Z,14.38
2022-11-23T14:02:44.009Z,11.30
2022-11-23T14:05:53.908Z,8.65
2022-11-23T14:09:14.335Z,8.35
2022-11-23T14:12:53.802Z,11.05
2022-11-23T14:15:59.390Z,10.60
2022-11-23T14:19:20.978Z,12.50
2022-11-23T14:22:47.364Z,7.30
2022-11-23T14:26:04.796Z,17.80
2022-11-23T14:29:27.340Z,6.90
2022-11-23T14:32:43.295Z,3.78
2022-11-23T14:35:59.200Z,5.82
2022-11-23T14:39:04.791Z,10.90
2022-11-23T14:42:27.497Z,12.77
2022-11-23T14:45:34.032Z,5.93
2022-11-23T14:48:36.289Z,10.68
2022-11-23T14:51:42.323Z,6.28
2022-11-23T14:54:48.471Z,6.75
2022-11-23T14:57:53.238Z,14.65
2022-11-23T15:01:00.108Z,14.95
2022-11-23T15:04:10.433Z,9.80
2022-11-23T15:07:15.718Z,11.05
2022-11-23T15:11:03.561Z,8.45
2022-11-23T15:14:21.415Z,7.57
2022-11-23T15:17:23.706Z,10.25
2022-11-23T15:20:41.637Z,11.35
2022-11-23T15:23:43.719Z,22.23
2022-11-23T15:26:48.817Z,15.25
2022-11-23T15:29:56.717Z,14.68
2022-11-23T15:33:01.217Z,19.17
2022-11-23T15:36:04.169Z,31.48
2022-11-23T15:39:09.749Z,22.58
2022-11-23T15:42:17.655Z,16.45
2022-11-23T15:45:41.963Z,18.67
2022-11-23T15:48:48.425Z,19.52
2022-11-23T15:51:52.726Z,22.90
2022-11-23T15:54:55.005Z,38.97
2022-11-23T15:57:57.557Z,30.55
2022-11-23T16:01:08.000Z,32.63
2022-11-23T16:04:30.323Z,20.62
2022-11-23T16:07:32.791Z,18.05
2022-11-23T16:10:35.452Z,18.48
2022-11-23T16:13:39.511Z,30.10
2022-11-23T16:16:45.738Z,25.58
2022-11-23T16:19:56.327Z,19.37
2022-11-23T16:23:00.330Z,16.70
2022-11-23T16:26:05.178Z,19.80
2022-11-23T16:29:23.550Z,25.80
2022-11-23T16:32:28.247Z,19.10
2022-11-23T16:35:30.782Z,22.42
2022-11-23T16:38:33.187Z,30.10
2022-11-23T16:41:35.418Z,16.98
2022-11-23T16:44:41.637Z,15.82
2022-11-23T16:47:55.287Z,18.62
2022-11-23T16:50:58.089Z,13.48
2022-11-23T16:54:20.350Z,16.70
2022-11-23T16:57:29.657Z,17.30
2022-11-23T17:00:33.899Z,14.90
2022-11-23T17:03:41.235Z,100.53
2022-11-23T17:06:44.801Z,41.30
2022-11-23T17:09:47.212Z,33.30
2022-11-23T17:12:54.764Z,19.40
2022-11-23T17:15:56.950Z,15.45
2022-11-23T17:18:59.343Z,12.93
2022-11-23T17:22:01.653Z,31.48
2022-11-23T17:25:07.868Z,15.90
2022-11-23T17:28:16.801Z,13.82
2022-11-23T17:31:19.704Z,14.77
2022-11-23T17:34:22.036Z,12.73
2022-11-23T17:37:24.601Z,14.10
2022-11-23T17:40:27.310Z,12.07
2022-11-23T17:43:29.486Z,5.68
2022-11-23T17:46:33.093Z,7.28
2022-11-23T17:49:35.774Z,16.33
2022-11-23T17:52:40.648Z,26.50
2022-11-23T17:55:42.860Z,18.10
2022-11-23T17:58:46.527Z,20.88
2022-11-23T18:01:49.134Z,20.77
2022-11-23T18:04:51.791Z,20.23
2022-11-23T18:07:54.426Z,18.75
2022-11-23T18:10:59.181Z,32.35
2022-11-23T18:14:03.373Z,45.83
2022-11-23T18:17:06.079Z,33.28
2022-11-23T18:20:10.222Z,22.25
2022-11-23T18:23:12.637Z,7.53
2022-11-23T18:26:19.091Z,7.30
2022-11-23T18:29:21.235Z,11.23
2022-11-23T18:32:23.542Z,28.15
2022-11-23T18:35:26.193Z,16.67
2022-11-23T18:38:28.616Z,15.30
2022-11-23T18:41:31.128Z,18.27
2022-11-23T18:44:35.037Z,21.10
2022-11-23T18:47:37.682Z,25.05
2022-11-23T18:50:41.714Z,15.30
2022-11-23T18:53:47.649Z,16.52
2022-11-23T18:56:50.045Z,8.57
2022-11-23T19:00:00.210Z,12.23
2022-11-23T19:03:03.755Z,8.43
2022-11-23T19:06:07.107Z,17.50
2022-11-23T19:09:13.133Z,16.87
2022-11-23T19:12:15.729Z,19.77
2022-11-23T19:15:18.301Z,18.02
2022-11-23T19:18:20.830Z,22.10
2022-11-23T19:21:25.131Z,22.80
2022-11-23T19:24:28.026Z,13.57
2022-11-23T19:27:35.931Z,14.43
2022-11-23T19:30:38.894Z,18.48
2022-11-23T19:33:42.129Z,11.48
2022-11-23T19:36:44.578Z,8.20
2022-11-23T19:39:47.082Z,8.10
2022-11-23T19:42:49.552Z,9.50
2022-11-23T19:45:58.049Z,8.32
2022-11-23T19:49:00.560Z,14.95
2022-11-23T19:52:05.203Z,8.55
2022-11-23T19:55:08.372Z,10.85
2022-11-23T19:58:10.930Z,11.23
2022-11-23T20:01:15.461Z,13.77
2022-11-23T20:04:18.012Z,19.30
2022-11-23T20:07:20.524Z,11.55
2022-11-23T20:10:23.068Z,14.43
2022-11-23T20:13:25.522Z,22.13
2022-11-23T20:16:30.509Z,16.75
2022-11-23T20:19:33.077Z,18.50
2022-11-23T20:22:35.870Z,8.68
2022-11-23T20:25:38.411Z,6.43
2022-11-23T20:28:41.636Z,8.63
2022-11-23T20:31:43.964Z,11.25
2022-11-23T20:34:46.458Z,11.23
2022-11-23T20:37:48.893Z,10.05
2022-11-23T20:40:51.337Z,14.90
2022-11-23T20:43:59.320Z,9.65
2022-11-23T20:47:03.004Z,6.12
2022-11-23T20:50:06.639Z,6.85
2022-11-23T20:53:09.123Z,8.52
2022-11-23T20:56:13.484Z,8.93
2022-11-23T20:59:16.015Z,7.75
2022-11-23T21:02:18.409Z,9.35
2022-11-23T21:05:21.073Z,11.75
2022-11-23T21:08:33.098Z,5.55
2022-11-23T21:11:55.384Z,10.40
2022-11-23T21:14:57.807Z,10.63
2022-11-23T21:18:00.757Z,13.75
2022-11-23T21:21:02.912Z,15.93
2022-11-23T21:24:06.369Z,7.53
2022-11-23T21:27:12.131Z,6.55
2022-11-23T21:30:14.447Z,9.70
2022-11-23T21:33:16.637Z,6.25
2022-11-23T21:36:18.972Z,6.07
2022-11-23T21:39:23.960Z,10.95
2022-11-23T21:42:26.142Z,7.93
2022-11-23T21:45:28.292Z,7.00
2022-11-23T21:48:30.475Z,7.93
2022-11-23T21:51:33.661Z,4.87
2022-11-23T21:54:36.079Z,4.00
2022-11-23T21:57:38.519Z,17.02
2022-11-23T22:00:40.748Z,13.20
2022-11-23T22:03:45.078Z,7.07
2022-11-23T22:06:47.203Z,5.80
2022-11-23T22:09:49.373Z,10.80
2022-11-23T22:12:51.541Z,7.97
2022-11-23T22:15:53.784Z,7.97
2022-11-23T22:18:56.406Z,6.10
2022-11-23T22:21:58.594Z,4.82
2022-11-23T22:25:00.799Z,6.55
2022-11-23T22:28:03.059Z,7.35
2022-11-23T22:31:06.451Z,7.85
2022-11-23T22:34:11.393Z,6.82
2022-11-23T22:37:13.523Z,5.43
2022-11-23T22:40:15.709Z,6.90
2022-11-23T22:43:17.908Z,10.63
2022-11-23T22:46:22.217Z,5.70
2022-11-23T22:49:24.498Z,7.12
2022-11-23T22:52:26.654Z,7.70
2022-11-23T22:55:28.917Z,7.43
2022-11-23T22:58:32.159Z,5.28
2022-11-23T23:01:34.357Z,7.90
2022-11-23T23:04:36.523Z,6.18
2022-11-23T23:07:38.784Z,6.32
2022-11-23T23:10:41.165Z,7.57
2022-11-23T23:13:43.381Z,7.57
2022-11-23T23:16:45.624Z,5.07
2022-11-23T23:19:48.802Z,9.52
2022-11-23T23:22:51.849Z,7.07
2022-11-23T23:25:54.243Z,4.50
2022-11-23T23:28:57.744Z,11.05
2022-11-23T23:31:59.955Z,13.70
2022-11-23T23:35:02.185Z,10.60
2022-11-23T23:38:04.615Z,8.02
2022-11-23T23:41:08.198Z,5.47
2022-11-23T23:44:10.363Z,4.90
2022-11-23T23:47:12.569Z,5.05
2022-11-23T23:50:14.917Z,6.40
2022-11-23T23:53:17.401Z,5.47
2022-11-23T23:56:24.780Z,7.18
2022-11-23T23:59:26.950Z,7.37
